Terminal Aerodrome Forecast
Issued by NWS Omaha/Valley, NE

Home | Current Version | Previous Version | Text Only | Print | Product List | Glossary Off
Versions: 1 2 3 4 5 6 7 8 9 10 11 12 13 14 15 16 17 18 19 20 21 22 23 24 25 26 27 28 29 30 31 32 33 34 35 36

000
FTUS43 KOAX 230530
TAFOFK
TAF
KOFK 230530Z 2306/2406 31010KT 2SM -SN BR OVC010
     FM230700 32010KT 2SM -SN BR OVC006
      TEMPO 2308/2310 3/4SM -SN OVC004
     FM231500 34015G25KT 4SM -SN BR OVC008
     FM231800 34015G23KT P6SM OVC008=

USA.gov is the U.S. government's official web portal to all federal, state and local government web resources and services.